09XS weather

Baptist Medical Center Heliport
San Antonio, Texas, United States

Public forecast

Using degrees Fahrenheit for public forecast. Weather courtesy of forecast.io.

Closest aviation weather report (METAR) to Baptist Medical Center Heliport

Closest report is Lackland Air Force Base, 5.5 nm (10.2 km) WSW. Retrieved 2020/08/06 05:56 UTC (24 minutes ago):

KSKF 060556Z AUTO 15009KT 10SM CLR 27/22 A2997 RMK AO2 SLP140 T02690218 10354 20269 403690227 52018

Closest aviation forecast (TAF) to Baptist Medical Center Heliport

Closest forecast is Lackland Air Force Base, 5.5 nm (10.2 km) WSW. Retrieved 2020-08-06 02:06 UTC (4 hours ago):

TAF KSKF 060200Z 0602/0708 14009KT 9999 SKC QNH2989INS BECMG 0609/0610 17005KT 9999 BKN010 QNH2993INS TEMPO 0611/0614 BKN008 BECMG 0614/0615 16010KT 9999 SCT030 SCT250 QNH2986INS BECMG 0623/0624 14012G18KT 9999 FEW060 FEW250 QNH2987INS BECMG 0704/0705 15009KT 9999 SKC QNH2995INS TX38/0621Z TN23/0611Z